Impacts TAF Board INFO
FOR SITUATIONAL AWARENESS. NOT TO BE USED FOR FLIGHT PLANNING PURPOSES.
IDs:

KSEA - Seattle-Tacoma Intl, WA, US

Issued at 2024 UTC 20 Jan 2018
Updated at 2052 UTC 20 Jan 2018
Potential Impact None Slight Moderate High
Time2023Z 20/21Z 20/22Z 20/23Z 21/00Z 21/01Z 21/02Z 21/03Z 21/04Z 21/05Z 21/06Z 21/07Z 21/08Z 21/09Z>>
Type OBS PRVL
  [TEMP]  
PRVL PRVL PRVL PRVL PRVL PRVL PRVL PRVL PRVL PRVL PRVL PRVL
VIS 10 >6 >6 >6 >6 >6 >6 >6 >6 >6 >6 >6 >6 >6
CIG 28 40
  [30]  
40 40 40 40 40 40 60 60 60 60 60 60
Cover OVC OVC
  [OVC]  
OVC OVC OVC OVC OVC OVC BKN BKN BKN BKN BKN BKN
FltCat MVFR VFR
  [MVFR]  
VFR VFR VFR VFR VFR VFR VFR VFR VFR VFR VFR VFR
WX -- VCSH
  [--]  
VCSH VCSH VCSH VCSH VCSH VCSH -- -- -- -- -- --
WDir 160 170
[170]
170 170 170 170 170 170 170 170 170 170 170 170
WSpd 11 10
  [10]  
10 10 10 10 10 10 15 15 15 15 15 15
WGst -- 18
  [18]  
18 18 18 18 18 18 25 25 25 25 25 25

Raw TAF
KSEA 202024Z 2020/2124 17010G18KT P6SM VCSH SCT030 BKN040 OVC050
  TEMPO 2020/2022 SCT020 BKN030 OVC040
  FM210400 17015G25KT P6SM SCT040 BKN060 WS020/21045KT
  FM211300 16017G28KT 6SM -RA BKN030 OVC050 WS020/19050KT
  FM211900 19016G26KT P6SM -SHRA SCT018 BKN030 BKN050


Raw METAR
KSEA 202023Z 16011KT 10SM FEW015 BKN028 OVC036 07/04 A3004 RMK AO2 RAE04 P0000 T00670039
KSEA 201953Z 17011KT 10SM -RA FEW029 BKN043 OVC050 06/04 A3006 RMK AO2 RAB1857 SLP186 P0002 T00610039
KSEA 201853Z 19013KT 10SM FEW023 OVC034 07/03 A3006 RMK AO2 SLP189 T00670028
KSEA 201753Z 19010KT 10SM FEW023 BKN030 OVC080 06/03 A3006 RMK AO2 SLP187 60001 T00610028 10061 20039 51012
KSEA 201737Z 18009KT 10SM FEW023 BKN033 OVC080 06/03 A3005 RMK AO2 T00610028

METAR Board
Radar Display
Forecast Discussion

FOR SITUATIONAL AWARENESS. NOT TO BE USED FOR FLIGHT PLANNING PURPOSES.